Terminal Aerodrome Forecast
Issued by NWS Mt. Holly, NJ

Home | Current Version | Previous Version | Text Only | Print | Product List | Glossary On
Versions: 1 2 3 4 5 6 7 8 9 10 11 12 13 14 15 16 17 18 19 20 21 22 23 24 25 26 27
765
FTUS41 KPHI 250554 AAA
TAFACY
TAF AMD
KACY 250554Z 2506/2606 08009KT 6SM -RA BR OVC025
      TEMPO 2506/2508 3SM RA BR OVC015
     FM250800 08010KT 2SM RA BR OVC012
     FM251200 10008KT 2SM -RA BR OVC005
     FM251500 19005KT 6SM -RA BR OVC010
     FM251800 24008KT P6SM OVC015 PROB30 2518/2523 3SM -RA BR
     FM260300 29005KT P6SM OVC035=

USA.gov is the U.S. government's official web portal to all federal, state and local government web resources and services.